sensor_id;sensor_type;location;lat;lon;timestamp;temperature;humidity
14755;DHT22;7469;50.906;6.952;2022-12-07T00:01:18;5.30;99.90
14755;DHT22;7469;50.906;6.952;2022-12-07T00:03:48;5.30;99.90
14755;DHT22;7469;50.906;6.952;2022-12-07T00:06:17;5.30;99.90
14755;DHT22;7469;50.906;6.952;2022-12-07T00:08:46;5.30;99.90
14755;DHT22;7469;50.906;6.952;2022-12-07T00:11:17;5.30;99.90
14755;DHT22;7469;50.906;6.952;2022-12-07T00:13:46;5.30;99.90
14755;DHT22;7469;50.906;6.952;2022-12-07T00:16:16;5.30;99.90
14755;DHT22;7469;50.906;6.952;2022-12-07T00:18:45;5.30;99.90
14755;DHT22;7469;50.906;6.952;2022-12-07T00:21:15;5.30;99.90
14755;DHT22;7469;50.906;6.952;2022-12-07T00:23:44;5.30;99.90
14755;DHT22;7469;50.906;6.952;2022-12-07T00:26:15;5.30;99.90
14755;DHT22;7469;50.906;6.952;2022-12-07T00:28:45;5.30;99.90
14755;DHT22;7469;50.906;6.952;2022-12-07T00:31:13;5.30;99.90
14755;DHT22;7469;50.906;6.952;2022-12-07T00:33:42;5.30;99.90
14755;DHT22;7469;50.906;6.952;2022-12-07T00:36:12;5.20;99.90
14755;DHT22;7469;50.906;6.952;2022-12-07T00:38:41;5.20;99.90
14755;DHT22;7469;50.906;6.952;2022-12-07T00:41:11;5.20;99.90
14755;DHT22;7469;50.906;6.952;2022-12-07T00:43:41;5.10;99.90
14755;DHT22;7469;50.906;6.952;2022-12-07T00:46:10;5.10;99.90
14755;DHT22;7469;50.906;6.952;2022-12-07T00:48:38;5.10;99.90
14755;DHT22;7469;50.906;6.952;2022-12-07T00:51:06;5.10;99.90
14755;DHT22;7469;50.906;6.952;2022-12-07T00:53:34;5.10;99.90
14755;DHT22;7469;50.906;6.952;2022-12-07T00:56:08;5.10;99.90
14755;DHT22;7469;50.906;6.952;2022-12-07T00:58:37;5.10;99.90
14755;DHT22;7469;50.906;6.952;2022-12-07T01:01:07;5.10;99.90
14755;DHT22;7469;50.906;6.952;2022-12-07T01:03:36;5.20;99.90
14755;DHT22;7469;50.906;6.952;2022-12-07T01:06:05;5.20;99.90
14755;DHT22;7469;50.906;6.952;2022-12-07T01:08:33;5.20;99.90
14755;DHT22;7469;50.906;6.952;2022-12-07T01:11:03;5.20;99.90
14755;DHT22;7469;50.906;6.952;2022-12-07T01:13:32;5.30;99.90
14755;DHT22;7469;50.906;6.952;2022-12-07T01:16:02;5.30;99.90
14755;DHT22;7469;50.906;6.952;2022-12-07T01:18:34;5.30;99.90
14755;DHT22;7469;50.906;6.952;2022-12-07T01:21:10;5.30;99.90
14755;DHT22;7469;50.906;6.952;2022-12-07T01:23:38;5.30;99.90
14755;DHT22;7469;50.906;6.952;2022-12-07T01:26:09;5.30;99.90
14755;DHT22;7469;50.906;6.952;2022-12-07T01:28:38;5.40;99.90
14755;DHT22;7469;50.906;6.952;2022-12-07T01:31:07;5.40;99.90
14755;DHT22;7469;50.906;6.952;2022-12-07T01:33:38;5.40;99.90
14755;DHT22;7469;50.906;6.952;2022-12-07T01:36:12;5.40;99.90
14755;DHT22;7469;50.906;6.952;2022-12-07T01:38:40;5.40;99.90
14755;DHT22;7469;50.906;6.952;2022-12-07T01:41:08;5.40;99.90
14755;DHT22;7469;50.906;6.952;2022-12-07T01:43:36;5.50;99.90
14755;DHT22;7469;50.906;6.952;2022-12-07T01:46:04;5.50;99.90
14755;DHT22;7469;50.906;6.952;2022-12-07T01:48:35;5.50;99.90
14755;DHT22;7469;50.906;6.952;2022-12-07T01:51:09;5.50;99.90
14755;DHT22;7469;50.906;6.952;2022-12-07T01:53:41;5.50;99.90
14755;DHT22;7469;50.906;6.952;2022-12-07T01:56:14;5.50;99.90
14755;DHT22;7469;50.906;6.952;2022-12-07T01:58:45;5.50;99.90
14755;DHT22;7469;50.906;6.952;2022-12-07T02:01:13;5.50;99.90
14755;DHT22;7469;50.906;6.952;2022-12-07T02:03:43;5.50;99.90
14755;DHT22;7469;50.906;6.952;2022-12-07T02:06:16;5.50;99.90
14755;DHT22;7469;50.906;6.952;2022-12-07T02:08:46;5.50;99.90
14755;DHT22;7469;50.906;6.952;2022-12-07T02:11:15;5.50;99.90
14755;DHT22;7469;50.906;6.952;2022-12-07T02:13:44;5.50;99.90
14755;DHT22;7469;50.906;6.952;2022-12-07T02:16:22;5.60;99.90
14755;DHT22;7469;50.906;6.952;2022-12-07T02:19:14;5.60;
14755;DHT22;7469;50.906;6.952;2022-12-07T02:21:52;5.60;99.90
14755;DHT22;7469;50.906;6.952;2022-12-07T02:24:45;5.50;99.90
14755;DHT22;7469;50.906;6.952;2022-12-07T02:27:35;5.50;99.90
14755;DHT22;7469;50.906;6.952;2022-12-07T02:30:08;5.50;99.90
14755;DHT22;7469;50.906;6.952;2022-12-07T02:32:51;5.50;99.90
14755;DHT22;7469;50.906;6.952;2022-12-07T02:35:28;5.50;99.90
14755;DHT22;7469;50.906;6.952;2022-12-07T02:38:02;5.50;99.90
14755;DHT22;7469;50.906;6.952;2022-12-07T02:40:35;5.50;99.90
14755;DHT22;7469;50.906;6.952;2022-12-07T02:43:07;5.50;99.90
14755;DHT22;7469;50.906;6.952;2022-12-07T02:45:39;5.50;99.90
14755;DHT22;7469;50.906;6.952;2022-12-07T02:48:10;5.50;99.90
14755;DHT22;7469;50.906;6.952;2022-12-07T02:50:44;5.50;99.90
14755;DHT22;7469;50.906;6.952;2022-12-07T02:53:28;5.50;99.90
14755;DHT22;7469;50.906;6.952;2022-12-07T02:55:56;5.50;99.90
14755;DHT22;7469;50.906;6.952;2022-12-07T02:58:33;5.50;99.90
14755;DHT22;7469;50.906;6.952;2022-12-07T03:01:13;5.40;99.90
14755;DHT22;7469;50.906;6.952;2022-12-07T03:03:47;5.40;99.90
14755;DHT22;7469;50.906;6.952;2022-12-07T03:06:20;5.40;99.90
14755;DHT22;7469;50.906;6.952;2022-12-07T03:08:54;5.40;99.90
14755;DHT22;7469;50.906;6.952;2022-12-07T03:11:28;5.40;99.90
14755;DHT22;7469;50.906;6.952;2022-12-07T03:14:01;5.40;99.90
14755;DHT22;7469;50.906;6.952;2022-12-07T03:16:39;5.30;99.90
14755;DHT22;7469;50.906;6.952;2022-12-07T03:19:11;5.30;99.90
14755;DHT22;7469;50.906;6.952;2022-12-07T03:21:42;5.40;99.90
14755;DHT22;7469;50.906;6.952;2022-12-07T03:24:14;5.30;99.90
14755;DHT22;7469;50.906;6.952;2022-12-07T03:26:46;5.30;99.90
14755;DHT22;7469;50.906;6.952;2022-12-07T03:29:20;5.40;99.90
14755;DHT22;7469;50.906;6.952;2022-12-07T03:31:57;5.40;99.90
14755;DHT22;7469;50.906;6.952;2022-12-07T03:34:30;5.40;99.90
14755;DHT22;7469;50.906;6.952;2022-12-07T03:37:03;5.40;99.90
14755;DHT22;7469;50.906;6.952;2022-12-07T03:39:36;5.40;99.90
14755;DHT22;7469;50.906;6.952;2022-12-07T03:42:07;5.40;99.90
14755;DHT22;7469;50.906;6.952;2022-12-07T03:44:36;5.40;99.90
14755;DHT22;7469;50.906;6.952;2022-12-07T03:47:12;5.40;99.90
14755;DHT22;7469;50.906;6.952;2022-12-07T03:49:44;5.50;99.90
14755;DHT22;7469;50.906;6.952;2022-12-07T03:52:21;5.40;99.90
14755;DHT22;7469;50.906;6.952;2022-12-07T03:54:55;5.40;99.90
14755;DHT22;7469;50.906;6.952;2022-12-07T03:57:25;5.40;99.90
14755;DHT22;7469;50.906;6.952;2022-12-07T03:59:54;5.40;99.90
14755;DHT22;7469;50.906;6.952;2022-12-07T04:02:26;5.40;99.90
14755;DHT22;7469;50.906;6.952;2022-12-07T04:04:55;5.40;99.90
14755;DHT22;7469;50.906;6.952;2022-12-07T04:07:23;5.40;99.90
14755;DHT22;7469;50.906;6.952;2022-12-07T04:09:51;5.40;99.90
14755;DHT22;7469;50.906;6.952;2022-12-07T04:12:21;5.40;99.90
14755;DHT22;7469;50.906;6.952;2022-12-07T04:14:49;5.40;99.90
14755;DHT22;7469;50.906;6.952;2022-12-07T04:17:17;5.40;99.90
14755;DHT22;7469;50.906;6.952;2022-12-07T04:19:46;5.40;99.90
14755;DHT22;7469;50.906;6.952;2022-12-07T04:22:14;5.40;99.90
14755;DHT22;7469;50.906;6.952;2022-12-07T04:24:42;5.40;99.90
14755;DHT22;7469;50.906;6.952;2022-12-07T04:27:11;5.40;99.90
14755;DHT22;7469;50.906;6.952;2022-12-07T04:29:39;5.40;99.90
14755;DHT22;7469;50.906;6.952;2022-12-07T04:32:07;5.40;99.90
14755;DHT22;7469;50.906;6.952;2022-12-07T04:34:34;5.40;99.90
14755;DHT22;7469;50.906;6.952;2022-12-07T04:37:04;5.40;99.90
14755;DHT22;7469;50.906;6.952;2022-12-07T04:39:33;5.40;99.90
14755;DHT22;7469;50.906;6.952;2022-12-07T04:42:01;5.30;99.90
14755;DHT22;7469;50.906;6.952;2022-12-07T04:44:30;5.30;99.90
14755;DHT22;7469;50.906;6.952;2022-12-07T04:46:58;5.30;99.90
14755;DHT22;7469;50.906;6.952;2022-12-07T04:49:26;5.20;99.90
14755;DHT22;7469;50.906;6.952;2022-12-07T04:51:54;5.20;99.90
14755;DHT22;7469;50.906;6.952;2022-12-07T04:54:23;5.20;99.90
14755;DHT22;7469;50.906;6.952;2022-12-07T04:56:51;5.20;99.90
14755;DHT22;7469;50.906;6.952;2022-12-07T04:59:20;5.10;99.90
14755;DHT22;7469;50.906;6.952;2022-12-07T05:01:48;5.10;99.90
14755;DHT22;7469;50.906;6.952;2022-12-07T05:04:16;5.10;99.90
14755;DHT22;7469;50.906;6.952;2022-12-07T05:06:45;5.10;99.90
14755;DHT22;7469;50.906;6.952;2022-12-07T05:09:13;5.10;99.90
14755;DHT22;7469;50.906;6.952;2022-12-07T05:11:42;5.10;99.90
14755;DHT22;7469;50.906;6.952;2022-12-07T05:14:13;5.10;99.90
14755;DHT22;7469;50.906;6.952;2022-12-07T05:16:42;5.10;99.90
14755;DHT22;7469;50.906;6.952;2022-12-07T05:19:11;5.20;99.90
14755;DHT22;7469;50.906;6.952;2022-12-07T05:21:39;5.10;99.90
14755;DHT22;7469;50.906;6.952;2022-12-07T05:24:09;5.10;99.90
14755;DHT22;7469;50.906;6.952;2022-12-07T05:26:37;5.10;99.90
14755;DHT22;7469;50.906;6.952;2022-12-07T05:29:07;5.10;99.90
14755;DHT22;7469;50.906;6.952;2022-12-07T05:31:35;5.10;99.90
14755;DHT22;7469;50.906;6.952;2022-12-07T05:34:03;5.10;99.90
14755;DHT22;7469;50.906;6.952;2022-12-07T05:36:31;5.10;99.90
14755;DHT22;7469;50.906;6.952;2022-12-07T05:38:59;5.10;99.90
14755;DHT22;7469;50.906;6.952;2022-12-07T05:41:27;5.10;99.90
14755;DHT22;7469;50.906;6.952;2022-12-07T05:44:16;5.10;99.90
14755;DHT22;7469;50.906;6.952;2022-12-07T05:46:44;5.20;99.90
14755;DHT22;7469;50.906;6.952;2022-12-07T05:49:12;5.10;99.90
14755;DHT22;7469;50.906;6.952;2022-12-07T05:51:40;5.10;99.90
14755;DHT22;7469;50.906;6.952;2022-12-07T05:54:08;5.20;99.90
14755;DHT22;7469;50.906;6.952;2022-12-07T05:56:36;5.20;99.90
14755;DHT22;7469;50.906;6.952;2022-12-07T05:59:04;5.20;99.90
14755;DHT22;7469;50.906;6.952;2022-12-07T06:01:51;5.20;99.90
14755;DHT22;7469;50.906;6.952;2022-12-07T06:04:20;5.20;99.90
14755;DHT22;7469;50.906;6.952;2022-12-07T06:06:48;5.20;99.90
14755;DHT22;7469;50.906;6.952;2022-12-07T06:09:18;5.20;99.90
14755;DHT22;7469;50.906;6.952;2022-12-07T06:11:46;5.20;99.90
14755;DHT22;7469;50.906;6.952;2022-12-07T06:14:31;5.10;99.90
14755;DHT22;7469;50.906;6.952;2022-12-07T06:17:01;5.10;99.90
14755;DHT22;7469;50.906;6.952;2022-12-07T06:19:29;5.10;99.90
14755;DHT22;7469;50.906;6.952;2022-12-07T06:21:57;5.00;99.90
14755;DHT22;7469;50.906;6.952;2022-12-07T06:24:26;5.00;99.90
14755;DHT22;7469;50.906;6.952;2022-12-07T06:26:54;4.90;99.90
14755;DHT22;7469;50.906;6.952;2022-12-07T06:29:22;4.80;99.90
14755;DHT22;7469;50.906;6.952;2022-12-07T06:31:50;4.80;99.90
14755;DHT22;7469;50.906;6.952;2022-12-07T06:34:21;4.70;99.90
14755;DHT22;7469;50.906;6.952;2022-12-07T06:36:50;4.70;99.90
14755;DHT22;7469;50.906;6.952;2022-12-07T06:39:20;4.60;99.90
14755;DHT22;7469;50.906;6.952;2022-12-07T06:41:49;4.60;99.90
14755;DHT22;7469;50.906;6.952;2022-12-07T06:44:19;4.60;99.90
14755;DHT22;7469;50.906;6.952;2022-12-07T06:46:47;4.60;99.90
14755;DHT22;7469;50.906;6.952;2022-12-07T06:49:16;4.60;99.90
14755;DHT22;7469;50.906;6.952;2022-12-07T06:51:45;4.60;99.90
14755;DHT22;7469;50.906;6.952;2022-12-07T06:54:14;4.70;99.90
14755;DHT22;7469;50.906;6.952;2022-12-07T06:56:42;4.70;99.90
14755;DHT22;7469;50.906;6.952;2022-12-07T06:59:10;4.70;99.90
14755;DHT22;7469;50.906;6.952;2022-12-07T07:01:38;4.70;99.90
14755;DHT22;7469;50.906;6.952;2022-12-07T07:04:06;4.70;99.90
14755;DHT22;7469;50.906;6.952;2022-12-07T07:06:34;4.80;99.90
14755;DHT22;7469;50.906;6.952;2022-12-07T07:09:04;4.70;99.90
14755;DHT22;7469;50.906;6.952;2022-12-07T07:11:32;4.70;99.90
14755;DHT22;7469;50.906;6.952;2022-12-07T07:14:00;4.70;99.90
14755;DHT22;7469;50.906;6.952;2022-12-07T07:16:29;4.70;99.90
14755;DHT22;7469;50.906;6.952;2022-12-07T07:18:58;4.70;99.90
14755;DHT22;7469;50.906;6.952;2022-12-07T07:21:25;4.80;99.90
14755;DHT22;7469;50.906;6.952;2022-12-07T07:23:53;4.80;99.90
14755;DHT22;7469;50.906;6.952;2022-12-07T07:26:23;4.80;99.90
14755;DHT22;7469;50.906;6.952;2022-12-07T07:28:50;4.80;99.90
14755;DHT22;7469;50.906;6.952;2022-12-07T07:31:18;4.80;99.90
14755;DHT22;7469;50.906;6.952;2022-12-07T07:33:46;4.80;99.90
14755;DHT22;7469;50.906;6.952;2022-12-07T07:36:14;4.80;99.90
14755;DHT22;7469;50.906;6.952;2022-12-07T07:38:42;4.80;99.90
14755;DHT22;7469;50.906;6.952;2022-12-07T07:41:10;4.90;99.90
14755;DHT22;7469;50.906;6.952;2022-12-07T07:43:39;4.90;99.90
14755;DHT22;7469;50.906;6.952;2022-12-07T07:46:07;4.90;99.90
14755;DHT22;7469;50.906;6.952;2022-12-07T07:48:35;4.90;99.90
14755;DHT22;7469;50.906;6.952;2022-12-07T07:51:05;4.90;99.90
14755;DHT22;7469;50.906;6.952;2022-12-07T07:53:33;4.90;99.90
14755;DHT22;7469;50.906;6.952;2022-12-07T07:56:01;4.80;99.90
14755;DHT22;7469;50.906;6.952;2022-12-07T07:58:29;4.80;99.90
14755;DHT22;7469;50.906;6.952;2022-12-07T08:01:04;4.90;99.90
14755;DHT22;7469;50.906;6.952;2022-12-07T08:03:33;4.90;99.90
14755;DHT22;7469;50.906;6.952;2022-12-07T08:06:02;4.90;99.90
14755;DHT22;7469;50.906;6.952;2022-12-07T08:08:30;5.00;99.90
14755;DHT22;7469;50.906;6.952;2022-12-07T08:10:58;5.10;99.90
14755;DHT22;7469;50.906;6.952;2022-12-07T08:13:27;5.20;99.90
14755;DHT22;7469;50.906;6.952;2022-12-07T08:15:57;5.20;99.90
14755;DHT22;7469;50.906;6.952;2022-12-07T08:18:27;5.30;99.90
14755;DHT22;7469;50.906;6.952;2022-12-07T08:20:59;5.40;99.90
14755;DHT22;7469;50.906;6.952;2022-12-07T08:23:27;5.40;99.90
14755;DHT22;7469;50.906;6.952;2022-12-07T08:26:06;5.40;99.90
14755;DHT22;7469;50.906;6.952;2022-12-07T08:28:35;5.40;99.90
14755;DHT22;7469;50.906;6.952;2022-12-07T08:31:05;5.40;99.90
14755;DHT22;7469;50.906;6.952;2022-12-07T08:33:35;5.40;99.90
14755;DHT22;7469;50.906;6.952;2022-12-07T08:36:04;5.40;99.90
14755;DHT22;7469;50.906;6.952;2022-12-07T08:38:34;5.50;99.90
14755;DHT22;7469;50.906;6.952;2022-12-07T08:41:03;5.60;99.90
14755;DHT22;7469;50.906;6.952;2022-12-07T08:43:31;5.70;99.90
14755;DHT22;7469;50.906;6.952;2022-12-07T08:46:06;5.80;99.90
14755;DHT22;7469;50.906;6.952;2022-12-07T08:48:38;6.00;99.90
14755;DHT22;7469;50.906;6.952;2022-12-07T08:51:07;6.30;99.90
14755;DHT22;7469;50.906;6.952;2022-12-07T08:53:36;6.60;99.90
14755;DHT22;7469;50.906;6.952;2022-12-07T08:56:06;6.90;99.90
14755;DHT22;7469;50.906;6.952;2022-12-07T08:58:36;7.30;99.90
14755;DHT22;7469;50.906;6.952;2022-12-07T09:01:04;7.50;99.90
14755;DHT22;7469;50.906;6.952;2022-12-07T09:03:32;7.60;99.90
14755;DHT22;7469;50.906;6.952;2022-12-07T09:06:02;7.70;99.90
14755;DHT22;7469;50.906;6.952;2022-12-07T09:08:33;7.70;99.90
14755;DHT22;7469;50.906;6.952;2022-12-07T09:11:02;7.70;99.90
14755;DHT22;7469;50.906;6.952;2022-12-07T09:13:30;7.70;99.90
14755;DHT22;7469;50.906;6.952;2022-12-07T09:15:58;7.70;99.90
14755;DHT22;7469;50.906;6.952;2022-12-07T09:18:26;7.80;99.90
14755;DHT22;7469;50.906;6.952;2022-12-07T09:20:54;7.80;99.90
14755;DHT22;7469;50.906;6.952;2022-12-07T09:23:24;7.90;99.90
14755;DHT22;7469;50.906;6.952;2022-12-07T09:25:52;8.30;99.90
14755;DHT22;7469;50.906;6.952;2022-12-07T09:28:20;8.90;99.90
14755;DHT22;7469;50.906;6.952;2022-12-07T09:30:48;9.30;99.90
14755;DHT22;7469;50.906;6.952;2022-12-07T09:33:37;9.30;99.90
14755;DHT22;7469;50.906;6.952;2022-12-07T09:36:05;9.30;99.90
14755;DHT22;7469;50.906;6.952;2022-12-07T09:38:34;9.30;99.90
14755;DHT22;7469;50.906;6.952;2022-12-07T09:41:05;9.10;99.90
14755;DHT22;7469;50.906;6.952;2022-12-07T09:43:35;8.90;99.90
14755;DHT22;7469;50.906;6.952;2022-12-07T09:46:04;8.70;99.90
14755;DHT22;7469;50.906;6.952;2022-12-07T09:48:33;8.50;99.90
14755;DHT22;7469;50.906;6.952;2022-12-07T09:51:13;8.30;99.90
14755;DHT22;7469;50.906;6.952;2022-12-07T09:53:52;8.30;99.90
14755;DHT22;7469;50.906;6.952;2022-12-07T09:56:21;8.20;99.90
14755;DHT22;7469;50.906;6.952;2022-12-07T09:58:51;8.10;99.90
14755;DHT22;7469;50.906;6.952;2022-12-07T10:01:22;8.00;99.90
14755;DHT22;7469;50.906;6.952;2022-12-07T10:03:52;8.00;99.90
14755;DHT22;7469;50.906;6.952;2022-12-07T10:06:20;8.00;99.90
14755;DHT22;7469;50.906;6.952;2022-12-07T10:08:50;8.00;99.90
14755;DHT22;7469;50.906;6.952;2022-12-07T10:11:17;8.00;99.90
14755;DHT22;7469;50.906;6.952;2022-12-07T10:13:47;8.00;99.90
14755;DHT22;7469;50.906;6.952;2022-12-07T10:16:35;8.00;99.90
14755;DHT22;7469;50.906;6.952;2022-12-07T10:19:19;8.20;99.90
14755;DHT22;7469;50.906;6.952;2022-12-07T10:22:01;8.50;99.90
14755;DHT22;7469;50.906;6.952;2022-12-07T10:24:31;8.60;99.90
14755;DHT22;7469;50.906;6.952;2022-12-07T10:26:59;8.70;99.90
14755;DHT22;7469;50.906;6.952;2022-12-07T10:29:30;8.60;99.90
14755;DHT22;7469;50.906;6.952;2022-12-07T10:32:00;8.60;99.90
14755;DHT22;7469;50.906;6.952;2022-12-07T10:34:30;8.50;99.90
14755;DHT22;7469;50.906;6.952;2022-12-07T10:37:16;8.50;99.90
14755;DHT22;7469;50.906;6.952;2022-12-07T10:39:47;8.40;99.90
14755;DHT22;7469;50.906;6.952;2022-12-07T10:42:18;8.40;99.90
14755;DHT22;7469;50.906;6.952;2022-12-07T10:44:46;8.30;99.90
14755;DHT22;7469;50.906;6.952;2022-12-07T10:47:28;8.30;99.90
14755;DHT22;7469;50.906;6.952;2022-12-07T10:50:24;8.30;99.90
14755;DHT22;7469;50.906;6.952;2022-12-07T10:53:11;8.30;99.90
14755;DHT22;7469;50.906;6.952;2022-12-07T10:55:54;8.40;99.90
14755;DHT22;7469;50.906;6.952;2022-12-07T10:58:46;8.40;99.90
14755;DHT22;7469;50.906;6.952;2022-12-07T11:01:24;8.60;99.90
14755;DHT22;7469;50.906;6.952;2022-12-07T11:04:15;9.50;99.90
14755;DHT22;7469;50.906;6.952;2022-12-07T11:06:50;10.30;99.90
14755;DHT22;7469;50.906;6.952;2022-12-07T11:09:46;10.70;99.90
14755;DHT22;7469;50.906;6.952;2022-12-07T11:12:49;10.70;99.90
14755;DHT22;7469;50.906;6.952;2022-12-07T11:15:25;10.60;99.90
14755;DHT22;7469;50.906;6.952;2022-12-07T11:18:00;10.30;99.90
14755;DHT22;7469;50.906;6.952;2022-12-07T11:20:39;10.10;99.90
14755;DHT22;7469;50.906;6.952;2022-12-07T11:23:18;9.80;99.90
14755;DHT22;7469;50.906;6.952;2022-12-07T11:25:54;9.60;99.90
14755;DHT22;7469;50.906;6.952;2022-12-07T11:28:41;9.40;99.90
14755;DHT22;7469;50.906;6.952;2022-12-07T11:31:16;9.20;99.90
14755;DHT22;7469;50.906;6.952;2022-12-07T11:33:59;9.00;99.90
14755;DHT22;7469;50.906;6.952;2022-12-07T11:36:36;8.90;99.90
14755;DHT22;7469;50.906;6.952;2022-12-07T11:39:15;8.80;99.90
14755;DHT22;7469;50.906;6.952;2022-12-07T11:41:45;8.70;99.90
14755;DHT22;7469;50.906;6.952;2022-12-07T11:44:25;8.60;99.90
14755;DHT22;7469;50.906;6.952;2022-12-07T11:46:58;8.60;99.90
14755;DHT22;7469;50.906;6.952;2022-12-07T11:49:40;8.50;99.90
14755;DHT22;7469;50.906;6.952;2022-12-07T11:52:17;8.30;99.90
14755;DHT22;7469;50.906;6.952;2022-12-07T11:54:50;8.20;99.90
14755;DHT22;7469;50.906;6.952;2022-12-07T11:57:24;8.10;99.90
14755;DHT22;7469;50.906;6.952;2022-12-07T12:00:02;8.10;99.90
14755;DHT22;7469;50.906;6.952;2022-12-07T12:02:36;8.10;99.90
14755;DHT22;7469;50.906;6.952;2022-12-07T12:05:13;8.00;99.90
14755;DHT22;7469;50.906;6.952;2022-12-07T12:07:44;8.00;99.90
14755;DHT22;7469;50.906;6.952;2022-12-07T12:10:47;7.90;99.90
14755;DHT22;7469;50.906;6.952;2022-12-07T12:17:17;7.70;99.90
14755;DHT22;7469;50.906;6.952;2022-12-07T12:20:00;7.70;99.90
14755;DHT22;7469;50.906;6.952;2022-12-07T12:22:34;7.60;99.90
14755;DHT22;7469;50.906;6.952;2022-12-07T12:25:06;7.50;99.90
14755;DHT22;7469;50.906;6.952;2022-12-07T12:27:37;7.50;99.90
14755;DHT22;7469;50.906;6.952;2022-12-07T12:30:23;7.40;99.90
14755;DHT22;7469;50.906;6.952;2022-12-07T12:33:02;7.40;99.90
14755;DHT22;7469;50.906;6.952;2022-12-07T12:35:32;7.40;99.90
14755;DHT22;7469;50.906;6.952;2022-12-07T12:38:31;7.30;99.90
14755;DHT22;7469;50.906;6.952;2022-12-07T12:41:01;7.40;99.90
14755;DHT22;7469;50.906;6.952;2022-12-07T12:43:49;7.30;99.90
14755;DHT22;7469;50.906;6.952;2022-12-07T12:46:47;7.30;99.90
14755;DHT22;7469;50.906;6.952;2022-12-07T12:49:41;7.30;99.90
14755;DHT22;7469;50.906;6.952;2022-12-07T12:55:43;7.30;99.90
14755;DHT22;7469;50.906;6.952;2022-12-07T12:58:32;7.30;99.90
14755;DHT22;7469;50.906;6.952;2022-12-07T13:01:38;7.20;99.90
14755;DHT22;7469;50.906;6.952;2022-12-07T13:04:47;7.20;99.90
14755;DHT22;7469;50.906;6.952;2022-12-07T13:10:30;7.20;99.90
14755;DHT22;7469;50.906;6.952;2022-12-07T13:13:05;7.10;99.90
14755;DHT22;7469;50.906;6.952;2022-12-07T13:15:52;7.10;99.90
14755;DHT22;7469;50.906;6.952;2022-12-07T13:18:24;7.10;99.90
14755;DHT22;7469;50.906;6.952;2022-12-07T13:20:55;7.10;99.90
14755;DHT22;7469;50.906;6.952;2022-12-07T13:23:25;7.00;99.90
14755;DHT22;7469;50.906;6.952;2022-12-07T13:28:50;7.10;99.90
14755;DHT22;7469;50.906;6.952;2022-12-07T13:31:33;7.10;99.90
14755;DHT22;7469;50.906;6.952;2022-12-07T13:34:04;7.10;99.90
14755;DHT22;7469;50.906;6.952;2022-12-07T13:36:34;7.10;99.90
14755;DHT22;7469;50.906;6.952;2022-12-07T13:39:17;7.10;99.90
14755;DHT22;7469;50.906;6.952;2022-12-07T13:41:51;7.10;99.90
14755;DHT22;7469;50.906;6.952;2022-12-07T13:44:20;7.10;99.90
14755;DHT22;7469;50.906;6.952;2022-12-07T13:46:59;7.10;99.90
14755;DHT22;7469;50.906;6.952;2022-12-07T13:49:31;7.10;99.90
14755;DHT22;7469;50.906;6.952;2022-12-07T13:52:16;7.10;99.90
14755;DHT22;7469;50.906;6.952;2022-12-07T13:54:47;7.10;99.90
14755;DHT22;7469;50.906;6.952;2022-12-07T13:57:17;7.10;99.90
14755;DHT22;7469;50.906;6.952;2022-12-07T13:59:45;7.10;99.90
14755;DHT22;7469;50.906;6.952;2022-12-07T14:02:25;7.20;99.90
14755;DHT22;7469;50.906;6.952;2022-12-07T14:05:09;7.20;99.90
14755;DHT22;7469;50.906;6.952;2022-12-07T14:07:49;7.20;99.90
14755;DHT22;7469;50.906;6.952;2022-12-07T14:10:24;7.20;99.90
14755;DHT22;7469;50.906;6.952;2022-12-07T14:12:55;7.10;99.90
14755;DHT22;7469;50.906;6.952;2022-12-07T14:15:27;7.10;99.90
14755;DHT22;7469;50.906;6.952;2022-12-07T14:17:56;7.10;99.90
14755;DHT22;7469;50.906;6.952;2022-12-07T14:20:32;7.10;99.90
14755;DHT22;7469;50.906;6.952;2022-12-07T14:23:01;7.00;99.90
14755;DHT22;7469;50.906;6.952;2022-12-07T14:25:45;7.00;99.90
14755;DHT22;7469;50.906;6.952;2022-12-07T14:28:28;7.00;99.90
14755;DHT22;7469;50.906;6.952;2022-12-07T14:30:57;7.00;99.90
14755;DHT22;7469;50.906;6.952;2022-12-07T14:33:26;6.90;99.90
14755;DHT22;7469;50.906;6.952;2022-12-07T14:35:55;6.90;99.90
14755;DHT22;7469;50.906;6.952;2022-12-07T14:38:25;6.90;99.90
14755;DHT22;7469;50.906;6.952;2022-12-07T14:40:53;6.90;99.90
14755;DHT22;7469;50.906;6.952;2022-12-07T14:43:43;6.90;99.90
14755;DHT22;7469;50.906;6.952;2022-12-07T14:46:31;6.80;99.90
14755;DHT22;7469;50.906;6.952;2022-12-07T14:48:59;6.90;99.90
14755;DHT22;7469;50.906;6.952;2022-12-07T14:51:47;6.80;99.90
14755;DHT22;7469;50.906;6.952;2022-12-07T14:54:35;6.80;99.90
14755;DHT22;7469;50.906;6.952;2022-12-07T14:57:03;6.80;99.90
14755;DHT22;7469;50.906;6.952;2022-12-07T14:59:33;6.80;99.90
14755;DHT22;7469;50.906;6.952;2022-12-07T15:02:06;6.80;99.90
14755;DHT22;7469;50.906;6.952;2022-12-07T15:04:34;6.80;99.90
14755;DHT22;7469;50.906;6.952;2022-12-07T15:07:06;6.70;99.90
14755;DHT22;7469;50.906;6.952;2022-12-07T15:09:36;6.70;99.90
14755;DHT22;7469;50.906;6.952;2022-12-07T15:12:05;6.70;99.90
14755;DHT22;7469;50.906;6.952;2022-12-07T15:14:34;6.70;99.90
14755;DHT22;7469;50.906;6.952;2022-12-07T15:17:02;6.70;99.90
14755;DHT22;7469;50.906;6.952;2022-12-07T15:19:37;6.70;99.90
14755;DHT22;7469;50.906;6.952;2022-12-07T15:22:05;6.60;99.90
14755;DHT22;7469;50.906;6.952;2022-12-07T15:24:33;6.60;99.90
14755;DHT22;7469;50.906;6.952;2022-12-07T15:27:01;6.60;99.90
14755;DHT22;7469;50.906;6.952;2022-12-07T15:29:30;6.60;99.90
14755;DHT22;7469;50.906;6.952;2022-12-07T15:31:59;6.60;99.90
14755;DHT22;7469;50.906;6.952;2022-12-07T15:34:27;6.60;99.90
14755;DHT22;7469;50.906;6.952;2022-12-07T15:37:06;6.60;99.90
14755;DHT22;7469;50.906;6.952;2022-12-07T15:39:35;6.60;99.90
14755;DHT22;7469;50.906;6.952;2022-12-07T15:42:04;6.60;99.90
14755;DHT22;7469;50.906;6.952;2022-12-07T15:44:32;6.60;99.90
14755;DHT22;7469;50.906;6.952;2022-12-07T15:47:19;6.50;99.90
14755;DHT22;7469;50.906;6.952;2022-12-07T15:49:47;6.50;99.90
14755;DHT22;7469;50.906;6.952;2022-12-07T15:52:15;6.50;99.90
14755;DHT22;7469;50.906;6.952;2022-12-07T15:54:43;6.50;99.90
14755;DHT22;7469;50.906;6.952;2022-12-07T15:57:11;6.50;99.90
14755;DHT22;7469;50.906;6.952;2022-12-07T15:59:39;6.40;99.90
14755;DHT22;7469;50.906;6.952;2022-12-07T16:02:08;6.40;99.90
14755;DHT22;7469;50.906;6.952;2022-12-07T16:04:39;6.40;99.90
14755;DHT22;7469;50.906;6.952;2022-12-07T16:07:08;6.30;99.90
14755;DHT22;7469;50.906;6.952;2022-12-07T16:09:39;6.30;99.90
14755;DHT22;7469;50.906;6.952;2022-12-07T16:12:07;6.20;99.90
14755;DHT22;7469;50.906;6.952;2022-12-07T16:14:35;6.20;99.90
14755;DHT22;7469;50.906;6.952;2022-12-07T16:17:03;6.10;99.90
14755;DHT22;7469;50.906;6.952;2022-12-07T16:19:32;6.00;99.90
14755;DHT22;7469;50.906;6.952;2022-12-07T16:22:02;6.00;99.90
14755;DHT22;7469;50.906;6.952;2022-12-07T16:24:30;5.90;99.90
14755;DHT22;7469;50.906;6.952;2022-12-07T16:26:58;5.80;99.90
14755;DHT22;7469;50.906;6.952;2022-12-07T16:29:27;5.80;99.90
14755;DHT22;7469;50.906;6.952;2022-12-07T16:31:55;5.70;99.90
14755;DHT22;7469;50.906;6.952;2022-12-07T16:34:23;5.70;99.90
14755;DHT22;7469;50.906;6.952;2022-12-07T16:36:51;5.60;99.90
14755;DHT22;7469;50.906;6.952;2022-12-07T16:39:35;5.60;99.90
14755;DHT22;7469;50.906;6.952;2022-12-07T16:42:04;5.60;99.90
14755;DHT22;7469;50.906;6.952;2022-12-07T16:44:32;5.60;99.90
14755;DHT22;7469;50.906;6.952;2022-12-07T16:47:00;5.50;99.90
14755;DHT22;7469;50.906;6.952;2022-12-07T16:49:28;5.60;99.90